Elong Elong — V3PK3 — position and weather

sailwx.info

Track history (hours):
 
Tides and Currents Weather Stations Pressure Air Temp Water Temp Dewpoint Dewpoint Depression Visibility Wind Speed Wind Dir Waves Ship Positions

Elong Elong

Last reported at 2018-Jun-18 11:08 UTC. Time now 2018-Jun-21 12:25 UTC.
Position N 35°58' W 005°15'.

Length 167 m; draft 6.5 m.

Type: Cargo ship. MMSI: 312691000.

Date/timePositionNaut miles runAvg speedWind from/ knotsBaromVisibWave heightAir tempDewpointWater temp
2018-Jun-18 11:08N 35°58' W 005°15'112.0
2018-Jun-18 11:01N 35°58' W 005°17'611.9
2018-Jun-18 10:30N 35°57' W 005°24'  
2018-Jun-16 01:33N 29°04' W 013°14'010.8
2018-Jun-16 01:30N 29°04' W 013°14'510.7
2018-Jun-16 01:00N 28°59' W 013°18'510.5
2018-Jun-16 00:30N 28°55' W 013°21'510.6
2018-Jun-16 00:00N 28°50' W 013°24'510.6
2018-Jun-15 23:29N 28°46' W 013°27'610.6
2018-Jun-15 22:56N 28°40' W 013°30'3610.4
2018-Jun-15 19:30N 28°10' W 013°50'510.3
2018-Jun-15 18:58N 28°05' W 013°54'1610.7
2018-Jun-15 17:26N 27°53' W 014°07'410.1
2018-Jun-15 17:00N 27°50' W 014°10'  
Track history (hours):
 
Tides and Currents Weather Stations Pressure Air Temp Water Temp Dewpoint Dewpoint Depression Visibility Wind Speed Wind Dir Waves Ship Positions

Elong Elong

Last reported at 2018-Jun-18 11:08 UTC. Time now 2018-Jun-21 12:25 UTC.
Position N 35°58' W 005°15'.

Length 167 m; draft 6.5 m.

Type: Cargo ship. MMSI: 312691000.

Date/timePositionNaut miles runAvg speedWind from/ knotsBaromVisibWave heightAir tempDewpointWater temp
2018-Jun-18 11:08N 35°58' W 005°15'112.0
2018-Jun-18 11:01N 35°58' W 005°17'611.9
2018-Jun-18 10:30N 35°57' W 005°24'  
2018-Jun-16 01:33N 29°04' W 013°14'010.8
2018-Jun-16 01:30N 29°04' W 013°14'510.7
2018-Jun-16 01:00N 28°59' W 013°18'510.5
2018-Jun-16 00:30N 28°55' W 013°21'510.6
2018-Jun-16 00:00N 28°50' W 013°24'510.6
2018-Jun-15 23:29N 28°46' W 013°27'610.6
2018-Jun-15 22:56N 28°40' W 013°30'3610.4
2018-Jun-15 19:30N 28°10' W 013°50'510.3
2018-Jun-15 18:58N 28°05' W 013°54'1610.7
2018-Jun-15 17:26N 27°53' W 014°07'410.1
2018-Jun-15 17:00N 27°50' W 014°10'  

Dump ship's entire track history